sensor_id;sensor_type;location;lat;lon;timestamp;pressure;altitude;pressure_sealevel;temperature;humidity
43683;BME280;29285;52.128;21.060;2023-07-13T00:00:04;99923.10;;;21.05;100.00
43683;BME280;29285;52.128;21.060;2023-07-13T00:05:30;99920.45;;;21.08;100.00
43683;BME280;29285;52.128;21.060;2023-07-13T00:10:31;99916.00;;;21.09;100.00
43683;BME280;29285;52.128;21.060;2023-07-13T00:15:32;99905.86;;;21.05;100.00
43683;BME280;29285;52.128;21.060;2023-07-13T00:20:34;99902.70;;;20.99;100.00
43683;BME280;29285;52.128;21.060;2023-07-13T00:25:34;99894.84;;;20.95;100.00
43683;BME280;29285;52.128;21.060;2023-07-13T00:30:36;99896.67;;;20.86;100.00
43683;BME280;29285;52.128;21.060;2023-07-13T00:35:37;99899.84;;;20.78;100.00
43683;BME280;29285;52.128;21.060;2023-07-13T00:40:39;99890.30;;;20.75;100.00
43683;BME280;29285;52.128;21.060;2023-07-13T00:50:45;99897.69;;;20.73;100.00
43683;BME280;29285;52.128;21.060;2023-07-13T00:55:49;99902.29;;;20.64;100.00
43683;BME280;29285;52.128;21.060;2023-07-13T01:00:52;99893.30;;;20.64;100.00
43683;BME280;29285;52.128;21.060;2023-07-13T01:05:53;99894.89;;;20.72;100.00
43683;BME280;29285;52.128;21.060;2023-07-13T01:10:56;99898.85;;;20.71;100.00
43683;BME280;29285;52.128;21.060;2023-07-13T01:16:03;99909.44;;;20.65;100.00
43683;BME280;29285;52.128;21.060;2023-07-13T01:21:05;99915.32;;;20.62;100.00
43683;BME280;29285;52.128;21.060;2023-07-13T01:26:06;99912.66;;;20.62;100.00
43683;BME280;29285;52.128;21.060;2023-07-13T01:31:08;99914.63;;;20.67;100.00
43683;BME280;29285;52.128;21.060;2023-07-13T01:36:11;99920.17;;;20.63;100.00
43683;BME280;29285;52.128;21.060;2023-07-13T01:41:12;99932.77;;;20.53;100.00
43683;BME280;29285;52.128;21.060;2023-07-13T01:46:16;99943.98;;;20.43;100.00
43683;BME280;29285;52.128;21.060;2023-07-13T01:51:19;99937.70;;;20.42;100.00
43683;BME280;29285;52.128;21.060;2023-07-13T01:56:20;99931.95;;;20.44;100.00
43683;BME280;29285;52.128;21.060;2023-07-13T02:01:21;99923.52;;;20.44;100.00
43683;BME280;29285;52.128;21.060;2023-07-13T02:06:22;99927.92;;;20.38;100.00
43683;BME280;29285;52.128;21.060;2023-07-13T02:11:23;99926.80;;;20.36;100.00
43683;BME280;29285;52.128;21.060;2023-07-13T02:16:25;99933.15;;;20.36;100.00
43683;BME280;29285;52.128;21.060;2023-07-13T02:21:29;99945.01;;;20.27;100.00
43683;BME280;29285;52.128;21.060;2023-07-13T02:26:30;99948.14;;;20.22;100.00
43683;BME280;29285;52.128;21.060;2023-07-13T02:31:31;99947.17;;;20.20;100.00
43683;BME280;29285;52.128;21.060;2023-07-13T02:36:33;99944.34;;;20.18;100.00
43683;BME280;29285;52.128;21.060;2023-07-13T02:41:34;99944.20;;;20.17;100.00
43683;BME280;29285;52.128;21.060;2023-07-13T02:46:36;99943.66;;;20.23;100.00
43683;BME280;29285;52.128;21.060;2023-07-13T02:51:37;99945.42;;;20.29;100.00
43683;BME280;29285;52.128;21.060;2023-07-13T02:56:39;99943.94;;;20.35;100.00
43683;BME280;29285;52.128;21.060;2023-07-13T03:01:40;99942.95;;;20.43;100.00
43683;BME280;29285;52.128;21.060;2023-07-13T03:06:41;99939.77;;;20.43;100.00
43683;BME280;29285;52.128;21.060;2023-07-13T03:11:42;99938.78;;;20.45;100.00
43683;BME280;29285;52.128;21.060;2023-07-13T03:16:44;99942.63;;;20.45;100.00
43683;BME280;29285;52.128;21.060;2023-07-13T03:21:45;99943.06;;;20.44;100.00
43683;BME280;29285;52.128;21.060;2023-07-13T03:26:47;99942.40;;;20.46;100.00
43683;BME280;29285;52.128;21.060;2023-07-13T03:31:48;99935.15;;;20.46;100.00
43683;BME280;29285;52.128;21.060;2023-07-13T03:36:49;99932.35;;;20.46;100.00
43683;BME280;29285;52.128;21.060;2023-07-13T03:41:50;99926.58;;;20.51;100.00
43683;BME280;29285;52.128;21.060;2023-07-13T03:46:51;99923.34;;;20.55;100.00
43683;BME280;29285;52.128;21.060;2023-07-13T03:51:52;99922.02;;;20.56;100.00
43683;BME280;29285;52.128;21.060;2023-07-13T03:56:53;99913.16;;;20.57;100.00
43683;BME280;29285;52.128;21.060;2023-07-13T04:01:54;99913.05;;;20.62;100.00
43683;BME280;29285;52.128;21.060;2023-07-13T04:06:57;99913.21;;;20.72;100.00
43683;BME280;29285;52.128;21.060;2023-07-13T04:11:59;99917.11;;;20.83;100.00
43683;BME280;29285;52.128;21.060;2023-07-13T04:17:00;99923.39;;;20.93;100.00
43683;BME280;29285;52.128;21.060;2023-07-13T04:22:01;99935.85;;;21.07;100.00
43683;BME280;29285;52.128;21.060;2023-07-13T04:27:02;99945.61;;;21.20;100.00
43683;BME280;29285;52.128;21.060;2023-07-13T04:32:04;99950.67;;;21.39;100.00
43683;BME280;29285;52.128;21.060;2023-07-13T04:37:05;99954.91;;;21.57;100.00
43683;BME280;29285;52.128;21.060;2023-07-13T04:42:06;99958.45;;;21.65;100.00
43683;BME280;29285;52.128;21.060;2023-07-13T04:47:07;99969.38;;;21.68;100.00
43683;BME280;29285;52.128;21.060;2023-07-13T04:52:08;99976.91;;;21.66;100.00
43683;BME280;29285;52.128;21.060;2023-07-13T04:57:09;99975.20;;;21.65;100.00
43683;BME280;29285;52.128;21.060;2023-07-13T05:02:10;99972.27;;;21.54;100.00
43683;BME280;29285;52.128;21.060;2023-07-13T05:07:11;99969.40;;;21.49;100.00
43683;BME280;29285;52.128;21.060;2023-07-13T05:12:12;99987.13;;;21.56;100.00
43683;BME280;29285;52.128;21.060;2023-07-13T05:17:13;99987.80;;;21.62;100.00
43683;BME280;29285;52.128;21.060;2023-07-13T05:22:14;99993.88;;;21.68;100.00
43683;BME280;29285;52.128;21.060;2023-07-13T05:27:15;100006.16;;;21.75;100.00
43683;BME280;29285;52.128;21.060;2023-07-13T05:32:17;100008.53;;;21.79;100.00
43683;BME280;29285;52.128;21.060;2023-07-13T05:37:18;100012.73;;;21.82;100.00
43683;BME280;29285;52.128;21.060;2023-07-13T05:42:20;100017.17;;;21.92;100.00
43683;BME280;29285;52.128;21.060;2023-07-13T05:47:21;100015.55;;;22.08;100.00
43683;BME280;29285;52.128;21.060;2023-07-13T05:52:22;100017.80;;;22.30;100.00
43683;BME280;29285;52.128;21.060;2023-07-13T05:57:23;100024.02;;;22.39;100.00
43683;BME280;29285;52.128;21.060;2023-07-13T06:02:24;100022.43;;;22.47;100.00
43683;BME280;29285;52.128;21.060;2023-07-13T06:07:27;100019.95;;;22.47;100.00
43683;BME280;29285;52.128;21.060;2023-07-13T06:12:28;100009.79;;;22.56;100.00
43683;BME280;29285;52.128;21.060;2023-07-13T06:17:29;100005.35;;;22.69;100.00
43683;BME280;29285;52.128;21.060;2023-07-13T06:22:30;100014.17;;;22.79;100.00
43683;BME280;29285;52.128;21.060;2023-07-13T06:27:31;100017.77;;;22.83;100.00
43683;BME280;29285;52.128;21.060;2023-07-13T06:32:32;100010.71;;;22.93;100.00
43683;BME280;29285;52.128;21.060;2023-07-13T06:37:33;100008.17;;;23.18;100.00
43683;BME280;29285;52.128;21.060;2023-07-13T06:42:34;99999.85;;;23.30;100.00
43683;BME280;29285;52.128;21.060;2023-07-13T06:47:35;99999.60;;;23.43;100.00
43683;BME280;29285;52.128;21.060;2023-07-13T06:52:37;99998.98;;;23.47;100.00
43683;BME280;29285;52.128;21.060;2023-07-13T06:57:38;99999.34;;;23.44;100.00
43683;BME280;29285;52.128;21.060;2023-07-13T07:02:40;99999.63;;;23.43;100.00
43683;BME280;29285;52.128;21.060;2023-07-13T07:07:41;99999.52;;;23.47;100.00
43683;BME280;29285;52.128;21.060;2023-07-13T07:12:42;100007.43;;;23.55;100.00
43683;BME280;29285;52.128;21.060;2023-07-13T07:17:43;100007.73;;;23.72;100.00
43683;BME280;29285;52.128;21.060;2023-07-13T07:22:44;100008.91;;;23.88;100.00
43683;BME280;29285;52.128;21.060;2023-07-13T07:27:46;100003.67;;;23.97;100.00
43683;BME280;29285;52.128;21.060;2023-07-13T07:32:47;100003.68;;;24.06;100.00
43683;BME280;29285;52.128;21.060;2023-07-13T07:37:48;100014.38;;;24.12;100.00
43683;BME280;29285;52.128;21.060;2023-07-13T07:42:48;100017.90;;;24.31;100.00
43683;BME280;29285;52.128;21.060;2023-07-13T07:47:49;100017.91;;;24.46;100.00
43683;BME280;29285;52.128;21.060;2023-07-13T07:52:50;100014.11;;;24.59;100.00
43683;BME280;29285;52.128;21.060;2023-07-13T07:57:52;100017.55;;;24.73;100.00
43683;BME280;29285;52.128;21.060;2023-07-13T08:02:53;100017.30;;;24.75;100.00
43683;BME280;29285;52.128;21.060;2023-07-13T08:07:54;100020.93;;;24.78;100.00
43683;BME280;29285;52.128;21.060;2023-07-13T08:12:56;100019.81;;;24.83;100.00
43683;BME280;29285;52.128;21.060;2023-07-13T08:17:57;100012.34;;;24.90;100.00
43683;BME280;29285;52.128;21.060;2023-07-13T08:22:58;100010.59;;;25.01;100.00
43683;BME280;29285;52.128;21.060;2023-07-13T08:27:59;100002.76;;;25.12;100.00
43683;BME280;29285;52.128;21.060;2023-07-13T08:33:00;100000.98;;;25.21;100.00
43683;BME280;29285;52.128;21.060;2023-07-13T08:38:02;99998.30;;;25.34;100.00
43683;BME280;29285;52.128;21.060;2023-07-13T08:43:03;99992.98;;;25.44;100.00
43683;BME280;29285;52.128;21.060;2023-07-13T08:48:09;99995.13;;;25.53;100.00
43683;BME280;29285;52.128;21.060;2023-07-13T08:53:13;100002.78;;;25.63;100.00
43683;BME280;29285;52.128;21.060;2023-07-13T08:58:17;100003.34;;;25.78;100.00
43683;BME280;29285;52.128;21.060;2023-07-13T09:03:22;100011.16;;;25.82;100.00
43683;BME280;29285;52.128;21.060;2023-07-13T09:18:50;100011.27;;;25.79;100.00
43683;BME280;29285;52.128;21.060;2023-07-13T09:23:54;100007.27;;;25.86;100.00
43683;BME280;29285;52.128;21.060;2023-07-13T09:29:17;100002.85;;;26.00;100.00
43683;BME280;29285;52.128;21.060;2023-07-13T09:34:20;99996.34;;;25.97;100.00
43683;BME280;29285;52.128;21.060;2023-07-13T09:39:26;99991.52;;;26.02;100.00
43683;BME280;29285;52.128;21.060;2023-07-13T09:44:34;99988.68;;;26.08;100.00
43683;BME280;29285;52.128;21.060;2023-07-13T09:49:36;99974.65;;;26.12;100.00
43683;BME280;29285;52.128;21.060;2023-07-13T09:54:38;99963.74;;;26.25;100.00
43683;BME280;29285;52.128;21.060;2023-07-13T09:59:48;99958.80;;;26.37;100.00
43683;BME280;29285;52.128;21.060;2023-07-13T10:04:56;99949.07;;;26.35;100.00
43683;BME280;29285;52.128;21.060;2023-07-13T10:10:00;99942.73;;;26.34;100.00
43683;BME280;29285;52.128;21.060;2023-07-13T10:15:02;99941.74;;;26.27;100.00
43683;BME280;29285;52.128;21.060;2023-07-13T10:20:05;99944.83;;;26.14;100.00
43683;BME280;29285;52.128;21.060;2023-07-13T10:25:20;99943.14;;;25.94;100.00
43683;BME280;29285;52.128;21.060;2023-07-13T10:30:27;99943.79;;;25.81;100.00
43683;BME280;29285;52.128;21.060;2023-07-13T10:35:30;99945.54;;;25.62;100.00
43683;BME280;29285;52.128;21.060;2023-07-13T10:40:37;99957.61;;;25.43;100.00
43683;BME280;29285;52.128;21.060;2023-07-13T10:45:40;99952.73;;;25.27;100.00
43683;BME280;29285;52.128;21.060;2023-07-13T10:50:44;99952.61;;;25.00;100.00
43683;BME280;29285;52.128;21.060;2023-07-13T11:16:42;100038.48;;;23.70;100.00
43683;BME280;29285;52.128;21.060;2023-07-13T11:22:09;100069.92;;;23.22;100.00
43683;BME280;29285;52.128;21.060;2023-07-13T11:32:31;100106.94;;;23.14;100.00
43683;BME280;29285;52.128;21.060;2023-07-13T11:37:32;100089.64;;;23.09;100.00
43683;BME280;29285;52.128;21.060;2023-07-13T11:42:35;100084.47;;;23.02;100.00
43683;BME280;29285;52.128;21.060;2023-07-13T11:47:40;100089.14;;;23.16;100.00
43683;BME280;29285;52.128;21.060;2023-07-13T11:52:41;100089.65;;;23.07;100.00
43683;BME280;29285;52.128;21.060;2023-07-13T11:58:01;100086.08;;;22.77;100.00
43683;BME280;29285;52.128;21.060;2023-07-13T12:03:04;100100.04;;;22.60;100.00
43683;BME280;29285;52.128;21.060;2023-07-13T12:08:09;100121.67;;;22.45;100.00
43683;BME280;29285;52.128;21.060;2023-07-13T12:13:14;100122.88;;;22.33;100.00
43683;BME280;29285;52.128;21.060;2023-07-13T12:18:20;100126.17;;;22.36;100.00
43683;BME280;29285;52.128;21.060;2023-07-13T12:23:26;100130.56;;;22.24;100.00
43683;BME280;29285;52.128;21.060;2023-07-13T12:28:37;100134.09;;;22.08;100.00
43683;BME280;29285;52.128;21.060;2023-07-13T12:33:39;100124.80;;;21.91;100.00
43683;BME280;29285;52.128;21.060;2023-07-13T12:38:45;100116.19;;;21.77;100.00
43683;BME280;29285;52.128;21.060;2023-07-13T12:43:47;100098.20;;;21.85;100.00
43683;BME280;29285;52.128;21.060;2023-07-13T12:48:51;100077.70;;;22.14;100.00
43683;BME280;29285;52.128;21.060;2023-07-13T12:54:13;100065.61;;;22.33;100.00
43683;BME280;29285;52.128;21.060;2023-07-13T12:59:20;100062.29;;;22.41;100.00
43683;BME280;29285;52.128;21.060;2023-07-13T13:04:22;100069.70;;;22.43;100.00
43683;BME280;29285;52.128;21.060;2023-07-13T13:09:23;100073.81;;;22.50;100.00
43683;BME280;29285;52.128;21.060;2023-07-13T13:14:24;100083.73;;;22.49;100.00
43683;BME280;29285;52.128;21.060;2023-07-13T13:19:28;100087.55;;;22.35;100.00
43683;BME280;29285;52.128;21.060;2023-07-13T13:24:29;100090.67;;;22.23;100.00
43683;BME280;29285;52.128;21.060;2023-07-13T13:29:39;100102.21;;;22.28;100.00
43683;BME280;29285;52.128;21.060;2023-07-13T13:34:41;100108.02;;;22.43;100.00
43683;BME280;29285;52.128;21.060;2023-07-13T13:39:44;100118.27;;;22.56;100.00
43683;BME280;29285;52.128;21.060;2023-07-13T13:44:45;100126.55;;;22.62;100.00
43683;BME280;29285;52.128;21.060;2023-07-13T13:49:46;100120.20;;;22.70;100.00
43683;BME280;29285;52.128;21.060;2023-07-13T13:54:48;100119.70;;;22.67;100.00
43683;BME280;29285;52.128;21.060;2023-07-13T13:59:49;100117.11;;;22.66;100.00
43683;BME280;29285;52.128;21.060;2023-07-13T14:04:55;100112.83;;;22.72;100.00
43683;BME280;29285;52.128;21.060;2023-07-13T14:09:58;100114.83;;;22.71;100.00
43683;BME280;29285;52.128;21.060;2023-07-13T14:15:01;100116.66;;;22.67;100.00
43683;BME280;29285;52.128;21.060;2023-07-13T14:20:02;100113.48;;;22.70;100.00
43683;BME280;29285;52.128;21.060;2023-07-13T14:25:06;100107.08;;;22.68;100.00
43683;BME280;29285;52.128;21.060;2023-07-13T14:30:20;100107.43;;;22.65;100.00
43683;BME280;29285;52.128;21.060;2023-07-13T14:35:22;100102.89;;;22.59;100.00
43683;BME280;29285;52.128;21.060;2023-07-13T14:40:29;100117.92;;;22.51;100.00
43683;BME280;29285;52.128;21.060;2023-07-13T14:45:31;100115.78;;;22.44;100.00
43683;BME280;29285;52.128;21.060;2023-07-13T14:50:32;100115.16;;;22.32;100.00
43683;BME280;29285;52.128;21.060;2023-07-13T14:55:34;100138.13;;;22.16;100.00
43683;BME280;29285;52.128;21.060;2023-07-13T15:00:36;100148.33;;;21.82;100.00
43683;BME280;29285;52.128;21.060;2023-07-13T15:05:39;100147.61;;;21.44;100.00
43683;BME280;29285;52.128;21.060;2023-07-13T15:10:41;100145.89;;;21.15;100.00
43683;BME280;29285;52.128;21.060;2023-07-13T15:15:47;100148.62;;;21.03;100.00
43683;BME280;29285;52.128;21.060;2023-07-13T15:20:51;100153.88;;;20.95;100.00
43683;BME280;29285;52.128;21.060;2023-07-13T15:25:57;100149.56;;;20.82;100.00
43683;BME280;29285;52.128;21.060;2023-07-13T15:30:58;100133.54;;;20.81;100.00
43683;BME280;29285;52.128;21.060;2023-07-13T15:35:59;100128.38;;;20.96;100.00
43683;BME280;29285;52.128;21.060;2023-07-13T15:41:00;100122.73;;;21.08;100.00
43683;BME280;29285;52.128;21.060;2023-07-13T15:46:02;100129.61;;;21.08;100.00
43683;BME280;29285;52.128;21.060;2023-07-13T15:51:05;100128.08;;;20.93;100.00
43683;BME280;29285;52.128;21.060;2023-07-13T15:56:18;100128.16;;;21.03;100.00
43683;BME280;29285;52.128;21.060;2023-07-13T16:01:20;100143.37;;;21.13;100.00
43683;BME280;29285;52.128;21.060;2023-07-13T16:06:24;100143.36;;;21.02;100.00
43683;BME280;29285;52.128;21.060;2023-07-13T16:11:32;100145.31;;;20.78;100.00
43683;BME280;29285;52.128;21.060;2023-07-13T16:16:34;100153.86;;;20.60;100.00
43683;BME280;29285;52.128;21.060;2023-07-13T16:21:42;100165.48;;;20.48;100.00
43683;BME280;29285;52.128;21.060;2023-07-13T16:26:44;100171.80;;;20.43;100.00
43683;BME280;29285;52.128;21.060;2023-07-13T16:32:05;100168.34;;;20.51;100.00
43683;BME280;29285;52.128;21.060;2023-07-13T16:37:37;100172.06;;;20.59;100.00
43683;BME280;29285;52.128;21.060;2023-07-13T16:42:37;100173.48;;;20.73;100.00
43683;BME280;29285;52.128;21.060;2023-07-13T16:47:38;100167.63;;;20.68;100.00
43683;BME280;29285;52.128;21.060;2023-07-13T16:52:42;100167.54;;;20.64;100.00
43683;BME280;29285;52.128;21.060;2023-07-13T16:57:45;100166.41;;;20.62;100.00
43683;BME280;29285;52.128;21.060;2023-07-13T17:02:47;100170.34;;;20.50;100.00
43683;BME280;29285;52.128;21.060;2023-07-13T17:07:48;100170.94;;;20.36;100.00
43683;BME280;29285;52.128;21.060;2023-07-13T17:12:52;100172.40;;;20.30;100.00
43683;BME280;29285;52.128;21.060;2023-07-13T17:17:54;100170.77;;;20.36;100.00
43683;BME280;29285;52.128;21.060;2023-07-13T17:23:25;100172.09;;;20.55;100.00
43683;BME280;29285;52.128;21.060;2023-07-13T17:28:26;100175.15;;;20.69;100.00
43683;BME280;29285;52.128;21.060;2023-07-13T17:33:34;100176.29;;;20.88;100.00
43683;BME280;29285;52.128;21.060;2023-07-13T17:38:39;100179.98;;;20.79;100.00
43683;BME280;29285;52.128;21.060;2023-07-13T17:43:42;100178.65;;;20.72;100.00
43683;BME280;29285;52.128;21.060;2023-07-13T17:48:45;100182.14;;;20.73;100.00
43683;BME280;29285;52.128;21.060;2023-07-13T17:53:47;100181.89;;;20.74;100.00
43683;BME280;29285;52.128;21.060;2023-07-13T17:58:48;100177.08;;;20.81;100.00
43683;BME280;29285;52.128;21.060;2023-07-13T18:03:51;100169.73;;;20.80;100.00
43683;BME280;29285;52.128;21.060;2023-07-13T18:08:56;100170.24;;;20.77;100.00
43683;BME280;29285;52.128;21.060;2023-07-13T18:13:59;100168.24;;;20.81;100.00
43683;BME280;29285;52.128;21.060;2023-07-13T18:19:01;100166.85;;;20.78;100.00
43683;BME280;29285;52.128;21.060;2023-07-13T18:24:03;100162.66;;;20.71;100.00
43683;BME280;29285;52.128;21.060;2023-07-13T18:29:05;100161.22;;;20.66;100.00
43683;BME280;29285;52.128;21.060;2023-07-13T18:34:06;100170.64;;;20.59;100.00
43683;BME280;29285;52.128;21.060;2023-07-13T18:39:14;100179.68;;;20.55;100.00
43683;BME280;29285;52.128;21.060;2023-07-13T18:44:17;100184.23;;;20.49;100.00
43683;BME280;29285;52.128;21.060;2023-07-13T18:49:17;100185.38;;;20.36;100.00
43683;BME280;29285;52.128;21.060;2023-07-13T18:54:18;100174.81;;;20.21;100.00
43683;BME280;29285;52.128;21.060;2023-07-13T18:59:21;100178.58;;;20.14;100.00
43683;BME280;29285;52.128;21.060;2023-07-13T19:04:30;100178.20;;;20.11;100.00
43683;BME280;29285;52.128;21.060;2023-07-13T19:09:32;100187.11;;;20.07;100.00
43683;BME280;29285;52.128;21.060;2023-07-13T19:14:34;100192.47;;;20.05;100.00
43683;BME280;29285;52.128;21.060;2023-07-13T19:19:34;100192.36;;;20.01;100.00
43683;BME280;29285;52.128;21.060;2023-07-13T19:24:35;100192.35;;;19.98;100.00
43683;BME280;29285;52.128;21.060;2023-07-13T19:29:36;100188.21;;;19.96;100.00
43683;BME280;29285;52.128;21.060;2023-07-13T19:34:38;100190.02;;;19.92;100.00
43683;BME280;29285;52.128;21.060;2023-07-13T19:39:40;100185.48;;;19.82;100.00
43683;BME280;29285;52.128;21.060;2023-07-13T19:44:42;100190.52;;;19.80;100.00
43683;BME280;29285;52.128;21.060;2023-07-13T19:49:43;100208.80;;;19.81;100.00
43683;BME280;29285;52.128;21.060;2023-07-13T19:54:44;100217.02;;;19.81;100.00
43683;BME280;29285;52.128;21.060;2023-07-13T19:59:49;100217.74;;;19.78;100.00
43683;BME280;29285;52.128;21.060;2023-07-13T20:04:52;100229.25;;;19.74;100.00
43683;BME280;29285;52.128;21.060;2023-07-13T20:09:53;100234.66;;;19.68;100.00
43683;BME280;29285;52.128;21.060;2023-07-13T20:14:55;100240.58;;;19.59;100.00
43683;BME280;29285;52.128;21.060;2023-07-13T20:19:57;100239.77;;;19.45;100.00
43683;BME280;29285;52.128;21.060;2023-07-13T20:24:59;100233.11;;;19.38;100.00
43683;BME280;29285;52.128;21.060;2023-07-13T20:30:00;100230.58;;;19.36;100.00
43683;BME280;29285;52.128;21.060;2023-07-13T20:35:00;100236.95;;;19.29;100.00
43683;BME280;29285;52.128;21.060;2023-07-13T20:40:04;100252.09;;;19.22;100.00
43683;BME280;29285;52.128;21.060;2023-07-13T20:45:12;100249.23;;;19.16;100.00
43683;BME280;29285;52.128;21.060;2023-07-13T20:50:22;100252.14;;;19.15;100.00
43683;BME280;29285;52.128;21.060;2023-07-13T20:55:26;100249.80;;;19.12;100.00
43683;BME280;29285;52.128;21.060;2023-07-13T21:00:28;100263.22;;;19.11;100.00
43683;BME280;29285;52.128;21.060;2023-07-13T21:05:40;100258.17;;;19.07;100.00
43683;BME280;29285;52.128;21.060;2023-07-13T21:10:43;100259.64;;;19.06;100.00
43683;BME280;29285;52.128;21.060;2023-07-13T21:15:46;100262.96;;;19.09;100.00
43683;BME280;29285;52.128;21.060;2023-07-13T21:20:50;100265.67;;;19.08;100.00
43683;BME280;29285;52.128;21.060;2023-07-13T21:25:52;100261.55;;;19.06;100.00
43683;BME280;29285;52.128;21.060;2023-07-13T21:30:57;100265.77;;;19.06;100.00
43683;BME280;29285;52.128;21.060;2023-07-13T21:36:00;100270.36;;;19.05;100.00
43683;BME280;29285;52.128;21.060;2023-07-13T21:41:12;100274.80;;;19.05;100.00
43683;BME280;29285;52.128;21.060;2023-07-13T21:46:15;100272.58;;;19.03;100.00
43683;BME280;29285;52.128;21.060;2023-07-13T21:51:20;100276.08;;;19.04;100.00
43683;BME280;29285;52.128;21.060;2023-07-13T21:56:22;100272.40;;;19.03;100.00
43683;BME280;29285;52.128;21.060;2023-07-13T22:01:28;100267.55;;;19.09;100.00
43683;BME280;29285;52.128;21.060;2023-07-13T22:06:31;100271.02;;;19.13;100.00
43683;BME280;29285;52.128;21.060;2023-07-13T22:11:32;100260.78;;;19.14;100.00
43683;BME280;29285;52.128;21.060;2023-07-13T22:16:34;100260.55;;;19.12;100.00
43683;BME280;29285;52.128;21.060;2023-07-13T22:21:35;100267.05;;;19.12;100.00
43683;BME280;29285;52.128;21.060;2023-07-13T22:26:36;100267.33;;;19.10;100.00
43683;BME280;29285;52.128;21.060;2023-07-13T22:31:37;100271.23;;;19.06;100.00
43683;BME280;29285;52.128;21.060;2023-07-13T22:36:39;100276.62;;;19.00;100.00
43683;BME280;29285;52.128;21.060;2023-07-13T22:41:41;100271.45;;;18.91;100.00
43683;BME280;29285;52.128;21.060;2023-07-13T22:46:42;100267.82;;;18.86;100.00
43683;BME280;29285;52.128;21.060;2023-07-13T22:51:43;100271.67;;;19.04;100.00
43683;BME280;29285;52.128;21.060;2023-07-13T22:56:45;100268.96;;;18.98;100.00
43683;BME280;29285;52.128;21.060;2023-07-13T23:01:46;100265.04;;;18.96;100.00
43683;BME280;29285;52.128;21.060;2023-07-13T23:06:47;100264.58;;;18.88;100.00
43683;BME280;29285;52.128;21.060;2023-07-13T23:11:53;100259.66;;;18.81;100.00
43683;BME280;29285;52.128;21.060;2023-07-13T23:16:57;100265.08;;;18.81;100.00
43683;BME280;29285;52.128;21.060;2023-07-13T23:21:59;100269.46;;;18.81;100.00
43683;BME280;29285;52.128;21.060;2023-07-13T23:27:00;100256.83;;;18.78;100.00
43683;BME280;29285;52.128;21.060;2023-07-13T23:32:02;100257.60;;;18.80;100.00
43683;BME280;29285;52.128;21.060;2023-07-13T23:37:15;100260.70;;;18.81;100.00
43683;BME280;29285;52.128;21.060;2023-07-13T23:42:17;100254.35;;;18.78;100.00
43683;BME280;29285;52.128;21.060;2023-07-13T23:47:17;100248.92;;;18.74;100.00
43683;BME280;29285;52.128;21.060;2023-07-13T23:52:19;100256.79;;;18.75;100.00
43683;BME280;29285;52.128;21.060;2023-07-13T23:57:20;100264.38;;;18.71;100.00
